aviador You're here:

LZTT Decoded Metar

POPRAD in SLOVAKIA
Report Time2017-08-24 03:00:00
UTC Time2017-08-24 03:09:18
Flight Rules vfr VFR
Wind280° at 05 kt
W.Decomp.*RWY 27: 5.0 kt HW 0.5 kt RCW
RWY 25: 4.5 kt HW 2.2 kt RCW
W.Rank280° ranks 4
Current wind is below 280° avg. (6.0)
Visibility9999 m
Phenomena:N/A
Clouds:Few 060 Hf
Expected CloudBase > 800 ft AGL from Temp-Dew spread
CeilingNone
Temp07°C (ISA -3)
Dew Point05°C (87% RH)
AAT4.1°C
QNH1019 hPa
Density Alt1,837 ft
Elevation2,320 ft
Report Wrong Elevation
Raw Report
METAR LZTT 240300Z 28005KT 9999 FEW060 07/05 Q1019=

Extra information for LZTT:More info

Metar Taf Metar & Taf Last 4 Metars F.Rules Stats Wind Profile Meteogram Temp Stats Airport Information Weather charts Add Link Nearby VenuesMetar ALERT Operation Metar Decoded Social comments